createdAt,value
2017-12-12T00:01:59.830Z,3.80
2017-12-12T00:04:28.962Z,3.80
2017-12-12T00:06:58.110Z,3.80
2017-12-12T00:09:26.493Z,3.80
2017-12-12T00:11:54.867Z,3.80
2017-12-12T00:14:23.233Z,3.80
2017-12-12T00:16:51.619Z,3.80
2017-12-12T00:19:19.993Z,3.80
2017-12-12T00:21:48.366Z,3.80
2017-12-12T00:24:16.745Z,3.80
2017-12-12T00:26:45.119Z,3.80
2017-12-12T00:29:13.582Z,3.70
2017-12-12T00:31:41.967Z,3.70
2017-12-12T00:34:10.331Z,3.70
2017-12-12T00:36:38.518Z,3.70
2017-12-12T00:39:07.704Z,3.70
2017-12-12T00:41:36.074Z,3.70
2017-12-12T00:44:04.442Z,3.70
2017-12-12T00:46:33.590Z,3.80
2017-12-12T00:49:01.969Z,3.70
2017-12-12T00:51:30.342Z,3.80
2017-12-12T00:53:58.733Z,3.70
2017-12-12T00:56:27.117Z,3.70
2017-12-12T00:58:57.629Z,3.80
2017-12-12T01:03:59.298Z,3.80
2017-12-12T01:06:28.681Z,3.80
2017-12-12T01:08:59.949Z,3.70
2017-12-12T01:11:28.330Z,3.80
2017-12-12T01:13:56.698Z,3.80
2017-12-12T01:16:25.074Z,3.70
2017-12-12T01:18:53.450Z,3.80
2017-12-12T01:21:21.866Z,3.80
2017-12-12T01:23:50.386Z,3.80
2017-12-12T01:26:18.768Z,3.80
2017-12-12T01:28:47.145Z,3.80
2017-12-12T01:31:15.513Z,3.70
2017-12-12T01:33:44.818Z,3.80
2017-12-12T01:36:13.198Z,3.80
2017-12-12T01:38:41.229Z,3.80
2017-12-12T01:41:09.723Z,3.80
2017-12-12T01:43:38.211Z,3.80
2017-12-12T01:46:05.913Z,3.80
2017-12-12T01:48:33.629Z,3.80
2017-12-12T01:51:02.431Z,3.80
2017-12-12T01:53:30.130Z,3.80
2017-12-12T01:55:58.190Z,3.80
2017-12-12T01:58:25.902Z,3.80
2017-12-12T02:00:53.952Z,3.80
2017-12-12T02:03:21.998Z,3.80
2017-12-12T02:05:49.706Z,3.80
2017-12-12T02:08:18.177Z,3.80
2017-12-12T02:10:46.660Z,3.80
2017-12-12T02:13:15.475Z,3.80
2017-12-12T02:15:43.551Z,3.80
2017-12-12T02:18:11.265Z,3.80
2017-12-12T02:20:38.974Z,3.90
2017-12-12T02:23:06.680Z,3.90
2017-12-12T02:25:35.161Z,3.90
2017-12-12T02:28:02.866Z,3.90
2017-12-12T02:30:30.589Z,3.90
2017-12-12T02:32:58.318Z,3.90
2017-12-12T02:35:26.040Z,3.80
2017-12-12T02:37:54.525Z,3.80
2017-12-12T02:40:22.229Z,3.80
2017-12-12T02:42:49.950Z,3.90
2017-12-12T02:45:18.421Z,3.90
2017-12-12T02:47:46.914Z,4.00
2017-12-12T02:50:14.622Z,3.90
2017-12-12T02:52:42.337Z,3.90
2017-12-12T02:55:10.818Z,3.90
2017-12-12T02:57:38.530Z,3.90
2017-12-12T03:00:06.250Z,3.90
2017-12-12T03:02:33.977Z,4.00
2017-12-12T03:05:01.684Z,4.00
2017-12-12T03:07:29.385Z,4.00
2017-12-12T03:09:57.107Z,4.00
2017-12-12T03:12:24.818Z,4.00
2017-12-12T03:14:52.536Z,4.00
2017-12-12T03:17:20.258Z,3.90
2017-12-12T03:19:48.729Z,4.10
2017-12-12T03:22:16.435Z,4.10
2017-12-12T03:24:44.149Z,4.10
2017-12-12T03:27:11.877Z,4.10
2017-12-12T03:29:39.625Z,4.10
2017-12-12T03:32:07.716Z,4.20
2017-12-12T03:34:35.435Z,4.10
2017-12-12T03:37:03.918Z,4.10
2017-12-12T03:39:31.970Z,4.10
2017-12-12T03:42:00.446Z,4.20
2017-12-12T03:44:28.158Z,4.20
2017-12-12T03:46:55.877Z,4.20
2017-12-12T03:49:24.349Z,4.20
2017-12-12T03:51:52.389Z,4.20
2017-12-12T03:54:20.121Z,4.30
2017-12-12T03:56:48.161Z,4.30
2017-12-12T03:59:16.641Z,4.20
2017-12-12T04:01:45.114Z,4.20
2017-12-12T04:04:13.592Z,4.20
2017-12-12T04:06:41.639Z,4.20
2017-12-12T04:09:09.354Z,4.20
2017-12-12T04:11:37.390Z,4.20
2017-12-12T04:14:05.130Z,4.10
2017-12-12T04:16:32.841Z,4.20
2017-12-12T04:19:01.664Z,4.10
2017-12-12T04:21:29.373Z,4.10
2017-12-12T04:23:58.829Z,4.10
2017-12-12T04:26:27.456Z,4.10
2017-12-12T04:28:56.269Z,4.20
2017-12-12T04:31:23.986Z,4.20
2017-12-12T04:33:51.683Z,4.20
2017-12-12T04:36:20.157Z,4.40
2017-12-12T04:38:48.969Z,4.40
2017-12-12T04:41:16.680Z,4.40
2017-12-12T04:43:44.810Z,4.40
2017-12-12T04:46:13.193Z,4.50
2017-12-12T04:48:40.906Z,4.60
2017-12-12T04:51:09.406Z,4.60
2017-12-12T04:53:38.225Z,4.50
2017-12-12T04:56:05.928Z,4.50
2017-12-12T04:58:33.635Z,4.50
2017-12-12T05:01:01.696Z,4.60
2017-12-12T05:03:29.725Z,4.50
2017-12-12T05:05:57.425Z,4.50
2017-12-12T05:08:25.912Z,4.50
2017-12-12T05:10:53.618Z,4.50
2017-12-12T05:13:21.334Z,4.50
2017-12-12T05:15:49.063Z,4.50
2017-12-12T05:18:16.766Z,4.50
2017-12-12T05:20:44.481Z,4.50
2017-12-12T05:23:12.194Z,4.60
2017-12-12T05:25:39.901Z,4.60
2017-12-12T05:28:07.617Z,4.60
2017-12-12T05:30:35.337Z,4.60
2017-12-12T05:33:03.147Z,4.60
2017-12-12T05:35:30.857Z,4.60
2017-12-12T05:37:58.570Z,4.70
2017-12-12T05:40:26.280Z,4.70
2017-12-12T05:42:54.000Z,4.70
2017-12-12T05:45:22.049Z,4.70
2017-12-12T05:47:50.101Z,4.60
2017-12-12T05:50:18.581Z,4.50
2017-12-12T05:52:47.392Z,4.50
2017-12-12T05:55:15.102Z,4.50
2017-12-12T05:57:42.878Z,4.40
2017-12-12T06:00:10.601Z,4.40
2017-12-12T06:02:38.321Z,4.40
2017-12-12T06:05:07.242Z,4.30
2017-12-12T06:07:35.302Z,4.30
2017-12-12T06:10:03.682Z,4.20
2017-12-12T06:12:31.382Z,4.30
2017-12-12T06:14:59.448Z,4.20
2017-12-12T06:17:27.492Z,4.10
2017-12-12T06:19:55.550Z,4.10
2017-12-12T06:22:23.272Z,4.10
2017-12-12T06:24:50.977Z,4.00
2017-12-12T06:27:18.957Z,4.00
2017-12-12T06:29:47.450Z,3.90
2017-12-12T06:32:15.174Z,3.90
2017-12-12T06:34:43.050Z,4.10
2017-12-12T06:37:10.822Z,4.10
2017-12-12T06:39:38.950Z,4.10
2017-12-12T06:42:06.941Z,4.00
2017-12-12T06:44:34.961Z,4.00
2017-12-12T06:47:02.680Z,3.90
2017-12-12T06:49:30.721Z,3.90
2017-12-12T06:51:59.985Z,3.80
2017-12-12T06:54:27.835Z,3.70
2017-12-12T06:56:55.577Z,3.70
2017-12-12T06:59:23.590Z,3.60
2017-12-12T07:01:51.462Z,3.50
2017-12-12T07:04:19.505Z,3.40
2017-12-12T07:06:47.226Z,3.30
2017-12-12T07:09:15.873Z,3.20
2017-12-12T07:11:45.074Z,3.10
2017-12-12T07:14:13.077Z,3.20
2017-12-12T07:16:41.062Z,3.20
2017-12-12T07:19:09.569Z,3.20
2017-12-12T07:21:38.645Z,3.20
2017-12-12T07:24:07.287Z,3.10
2017-12-12T07:26:35.999Z,3.10
2017-12-12T07:29:05.369Z,3.20
2017-12-12T07:31:33.748Z,3.10
2017-12-12T07:34:01.469Z,3.10
2017-12-12T07:36:30.913Z,3.10
2017-12-12T07:39:01.217Z,3.10
2017-12-12T07:41:29.185Z,3.10
2017-12-12T07:43:57.601Z,3.10
2017-12-12T07:46:27.055Z,3.10
2017-12-12T07:48:56.465Z,3.10
2017-12-12T07:51:25.745Z,3.10
2017-12-12T07:53:54.422Z,3.10
2017-12-12T07:56:22.956Z,3.00
2017-12-12T07:58:51.656Z,3.10
2017-12-12T08:01:20.311Z,3.10
2017-12-12T08:03:48.347Z,3.10
2017-12-12T08:06:16.302Z,3.10
2017-12-12T08:08:44.278Z,3.00
2017-12-12T08:11:12.731Z,3.00
2017-12-12T08:13:41.904Z,3.00
2017-12-12T08:16:10.550Z,3.00
2017-12-12T08:18:39.962Z,3.00
2017-12-12T08:21:08.562Z,3.00
2017-12-12T08:23:36.609Z,3.00
2017-12-12T08:26:04.792Z,2.90
2017-12-12T08:28:33.447Z,2.90
2017-12-12T08:31:01.822Z,2.90
2017-12-12T08:33:29.589Z,3.00
2017-12-12T08:35:57.971Z,3.00
2017-12-12T08:38:26.613Z,2.90
2017-12-12T08:40:55.569Z,2.90
2017-12-12T08:43:23.953Z,2.80
2017-12-12T08:45:52.455Z,2.80
2017-12-12T08:48:21.095Z,2.80
2017-12-12T08:50:49.774Z,2.80
2017-12-12T08:53:19.182Z,2.80
2017-12-12T08:55:47.696Z,2.80
2017-12-12T08:58:16.362Z,2.90
2017-12-12T09:00:44.732Z,2.90
2017-12-12T09:03:13.106Z,2.90
2017-12-12T09:05:41.462Z,2.80
2017-12-12T09:08:09.898Z,2.80
2017-12-12T09:10:38.210Z,2.80
2017-12-12T09:13:07.390Z,2.90
2017-12-12T09:15:35.845Z,2.90
2017-12-12T09:18:04.297Z,3.00
2017-12-12T09:20:32.702Z,3.00
2017-12-12T09:23:01.350Z,2.90
2017-12-12T09:25:29.385Z,2.90
2017-12-12T09:27:57.993Z,2.90
2017-12-12T09:30:26.371Z,2.90
2017-12-12T09:32:54.749Z,2.90
2017-12-12T09:35:23.065Z,2.90
2017-12-12T09:37:51.436Z,2.90
2017-12-12T09:40:19.823Z,2.90
2017-12-12T09:42:48.514Z,2.80
2017-12-12T09:45:16.824Z,2.90
2017-12-12T09:47:45.382Z,2.90
2017-12-12T09:50:13.931Z,2.90
2017-12-12T09:52:42.546Z,2.80
2017-12-12T09:55:11.234Z,2.80
2017-12-12T09:57:39.806Z,2.80
2017-12-12T10:00:07.778Z,2.80
2017-12-12T10:02:36.417Z,2.90
2017-12-12T10:05:04.814Z,3.00
2017-12-12T10:07:33.494Z,3.00
2017-12-12T10:10:01.870Z,3.10
2017-12-12T10:12:30.959Z,3.60
2017-12-12T10:14:59.421Z,3.50
2017-12-12T10:17:27.798Z,3.60
2017-12-12T10:19:56.871Z,3.50
2017-12-12T10:22:25.673Z,3.60
2017-12-12T10:24:54.316Z,3.50
2017-12-12T10:27:23.709Z,3.70
2017-12-12T10:29:51.781Z,3.70
2017-12-12T10:32:20.303Z,3.70
2017-12-12T10:34:48.537Z,3.50
2017-12-12T10:37:16.514Z,3.50
2017-12-12T10:39:44.526Z,3.30
2017-12-12T10:42:12.238Z,3.30
2017-12-12T10:44:40.350Z,3.30
2017-12-12T10:47:08.336Z,3.20
2017-12-12T10:49:36.326Z,3.30
2017-12-12T10:52:05.406Z,3.40
2017-12-12T10:54:34.293Z,3.50
2017-12-12T10:57:02.941Z,3.50
2017-12-12T10:59:31.579Z,3.50
2017-12-12T11:02:00.162Z,3.50
2017-12-12T11:04:28.715Z,3.40
2017-12-12T11:06:57.145Z,3.40
2017-12-12T11:09:26.323Z,3.40
2017-12-12T11:11:54.977Z,3.40
2017-12-12T11:14:23.353Z,3.50
2017-12-12T11:16:52.053Z,3.50
2017-12-12T11:19:21.377Z,3.50
2017-12-12T11:21:50.747Z,3.50
2017-12-12T11:24:19.855Z,3.40
2017-12-12T11:26:48.857Z,3.40
2017-12-12T11:29:17.559Z,3.40
2017-12-12T11:31:45.579Z,3.30
2017-12-12T11:34:13.566Z,3.30
2017-12-12T11:36:42.046Z,3.20
2017-12-12T11:39:10.818Z,3.10
2017-12-12T11:41:40.215Z,3.00
2017-12-12T11:44:08.851Z,3.00
2017-12-12T11:46:37.478Z,2.90
2017-12-12T11:49:05.211Z,3.00
2017-12-12T11:51:33.676Z,3.00
2017-12-12T11:54:02.102Z,3.20
2017-12-12T11:56:30.794Z,3.30
2017-12-12T11:58:58.839Z,3.30
2017-12-12T12:01:27.412Z,3.30
2017-12-12T12:03:56.235Z,3.30
2017-12-12T12:06:24.257Z,3.30
2017-12-12T12:08:52.583Z,3.20
2017-12-12T12:11:20.765Z,3.10
2017-12-12T12:13:48.489Z,3.10
2017-12-12T12:16:16.229Z,3.10
2017-12-12T12:18:44.606Z,3.10
2017-12-12T12:21:12.314Z,3.10
2017-12-12T12:23:40.354Z,3.10
2017-12-12T12:26:08.236Z,3.00
2017-12-12T12:28:36.769Z,3.10
2017-12-12T12:31:04.806Z,3.10
2017-12-12T12:33:32.864Z,3.10
2017-12-12T12:36:01.269Z,3.00
2017-12-12T12:38:29.233Z,3.00
2017-12-12T12:40:57.509Z,3.00
2017-12-12T12:43:26.257Z,3.00
2017-12-12T12:45:55.067Z,3.10
2017-12-12T12:48:23.930Z,3.00
2017-12-12T12:50:53.085Z,3.00
2017-12-12T12:53:21.930Z,3.00
2017-12-12T12:55:49.648Z,3.00
2017-12-12T12:58:18.022Z,3.00
2017-12-12T13:00:47.304Z,2.90
2017-12-12T13:03:15.706Z,2.90
2017-12-12T13:05:44.252Z,3.00
2017-12-12T13:08:12.822Z,2.90
2017-12-12T13:10:41.146Z,2.90
2017-12-12T13:13:09.801Z,2.90
2017-12-12T13:15:38.179Z,2.80
2017-12-12T13:18:06.345Z,2.70
2017-12-12T13:20:35.758Z,2.60
2017-12-12T13:23:04.946Z,2.50
2017-12-12T13:25:33.609Z,2.50
2017-12-12T13:28:01.986Z,2.50
2017-12-12T13:30:30.782Z,2.50
2017-12-12T13:33:00.118Z,2.50
2017-12-12T13:35:28.187Z,2.40
2017-12-12T13:37:55.902Z,2.40
2017-12-12T13:40:25.051Z,2.40
2017-12-12T13:42:53.699Z,2.40
2017-12-12T13:45:23.113Z,2.30
2017-12-12T13:47:51.525Z,2.30
2017-12-12T13:50:19.904Z,2.30
2017-12-12T13:52:49.165Z,2.40
2017-12-12T13:55:18.577Z,2.50
2017-12-12T13:57:47.981Z,2.50
2017-12-12T14:00:16.424Z,2.40
2017-12-12T14:02:45.063Z,2.40
2017-12-12T14:05:13.676Z,2.40
2017-12-12T14:07:42.807Z,2.30
2017-12-12T14:10:11.464Z,2.30
2017-12-12T14:12:40.106Z,2.40
2017-12-12T14:15:09.192Z,2.30
2017-12-12T14:17:37.842Z,2.30
2017-12-12T14:20:05.622Z,2.20
2017-12-12T14:22:34.637Z,2.10
2017-12-12T14:25:03.017Z,2.00
2017-12-12T14:27:31.399Z,1.90
2017-12-12T14:29:59.802Z,1.90
2017-12-12T14:32:28.284Z,1.90
2017-12-12T14:34:58.048Z,1.80
2017-12-12T14:37:27.450Z,1.80
2017-12-12T14:39:55.829Z,1.80
2017-12-12T14:42:25.018Z,1.70
2017-12-12T14:44:54.418Z,1.60
2017-12-12T14:47:23.114Z,1.60
2017-12-12T14:49:52.521Z,1.70
2017-12-12T14:52:20.921Z,1.60
2017-12-12T14:54:49.521Z,1.70
2017-12-12T14:57:19.002Z,1.60
2017-12-12T14:59:47.659Z,1.60
2017-12-12T15:02:17.077Z,1.60
2017-12-12T15:04:45.593Z,1.60
2017-12-12T15:07:14.727Z,1.60
2017-12-12T15:09:43.107Z,1.50
2017-12-12T15:12:11.797Z,1.60
2017-12-12T15:14:40.315Z,1.60
2017-12-12T15:17:08.805Z,1.60
2017-12-12T15:19:37.789Z,1.60
2017-12-12T15:22:08.013Z,1.60
2017-12-12T15:24:36.456Z,1.60
2017-12-12T15:27:04.829Z,1.60
2017-12-12T15:29:34.233Z,1.60
2017-12-12T15:32:03.749Z,1.60
2017-12-12T15:34:31.786Z,1.60
2017-12-12T15:37:00.635Z,1.60
2017-12-12T15:39:29.084Z,1.60
2017-12-12T15:41:57.543Z,1.60
2017-12-12T15:44:26.938Z,1.70
2017-12-12T15:46:56.346Z,1.70
2017-12-12T15:49:24.386Z,1.70
2017-12-12T15:51:52.778Z,1.70
2017-12-12T15:54:21.490Z,1.70
2017-12-12T15:56:50.102Z,1.70
2017-12-12T15:59:18.488Z,1.70
2017-12-12T16:01:47.938Z,1.80
2017-12-12T16:04:16.445Z,1.80
2017-12-12T16:06:44.821Z,1.80
2017-12-12T16:09:13.207Z,1.80
2017-12-12T16:11:41.977Z,1.80
2017-12-12T16:14:10.661Z,1.80
2017-12-12T16:16:47.308Z,1.80
2017-12-12T16:19:15.878Z,1.80
2017-12-12T16:21:44.522Z,1.70
2017-12-12T16:24:13.223Z,1.70
2017-12-12T16:26:42.262Z,1.70
2017-12-12T16:29:10.312Z,1.80
2017-12-12T16:31:38.928Z,1.70
2017-12-12T16:34:07.894Z,1.80
2017-12-12T16:36:35.593Z,1.70
2017-12-12T16:39:03.316Z,1.80
2017-12-12T16:41:31.833Z,1.80
2017-12-12T16:44:00.206Z,1.90
2017-12-12T16:46:28.272Z,1.90
2017-12-12T16:48:57.671Z,1.90
2017-12-12T16:51:25.878Z,1.90
2017-12-12T16:53:54.263Z,1.90
2017-12-12T16:56:22.942Z,1.90
2017-12-12T16:58:52.209Z,1.90
2017-12-12T17:01:20.607Z,1.80
2017-12-12T17:03:48.990Z,1.90
2017-12-12T17:06:17.638Z,1.90
2017-12-12T17:08:46.020Z,1.90
2017-12-12T17:11:15.434Z,1.90
2017-12-12T17:13:44.202Z,1.80
2017-12-12T17:16:12.621Z,1.90
2017-12-12T17:18:40.998Z,1.80
2017-12-12T17:21:09.622Z,1.80
2017-12-12T17:23:38.767Z,1.90
2017-12-12T17:26:07.142Z,1.90
2017-12-12T17:28:35.517Z,1.90
2017-12-12T17:31:04.019Z,1.80
2017-12-12T17:33:32.585Z,1.80
2017-12-12T17:36:00.956Z,1.80
2017-12-12T17:38:30.524Z,1.80
2017-12-12T17:40:59.161Z,1.80
2017-12-12T17:43:27.557Z,1.70
2017-12-12T17:45:56.251Z,1.80
2017-12-12T17:48:25.391Z,1.80
2017-12-12T17:50:54.692Z,1.80
2017-12-12T17:53:30.196Z,1.80
2017-12-12T17:55:58.828Z,1.80
2017-12-12T17:58:27.207Z,1.70
2017-12-12T18:00:55.587Z,1.70
2017-12-12T18:03:24.404Z,1.70
2017-12-12T18:05:53.026Z,1.70
2017-12-12T18:08:22.861Z,1.70
2017-12-12T18:10:51.231Z,1.70
2017-12-12T18:13:20.225Z,1.70
2017-12-12T18:15:48.601Z,1.70
2017-12-12T18:18:17.271Z,1.70
2017-12-12T18:20:45.642Z,1.70
2017-12-12T18:23:14.296Z,1.60
2017-12-12T18:25:42.708Z,1.70
2017-12-12T18:28:11.097Z,1.70
2017-12-12T18:30:39.652Z,1.70
2017-12-12T18:33:08.306Z,1.60
2017-12-12T18:35:37.000Z,1.60
2017-12-12T18:38:05.648Z,1.60
2017-12-12T18:40:34.712Z,1.70
2017-12-12T18:43:03.075Z,1.70
2017-12-12T18:45:32.267Z,1.80
2017-12-12T18:48:00.906Z,1.70
2017-12-12T18:50:29.287Z,1.80
2017-12-12T18:52:57.684Z,1.70
2017-12-12T18:55:26.330Z,1.70
2017-12-12T18:57:55.748Z,1.70
2017-12-12T19:00:23.472Z,1.60
2017-12-12T19:02:52.142Z,1.60
2017-12-12T19:05:20.840Z,1.60
2017-12-12T19:07:49.513Z,1.60
2017-12-12T19:10:17.975Z,1.60
2017-12-12T19:12:46.591Z,1.60
2017-12-12T19:15:15.251Z,1.50
2017-12-12T19:17:44.425Z,1.50
2017-12-12T19:20:12.589Z,1.50
2017-12-12T19:22:40.645Z,1.50
2017-12-12T19:25:09.012Z,1.50
2017-12-12T19:27:37.513Z,1.50
2017-12-12T19:30:05.595Z,1.50
2017-12-12T19:32:33.634Z,1.50
2017-12-12T19:35:02.010Z,1.50
2017-12-12T19:37:31.418Z,1.50
2017-12-12T19:39:59.794Z,1.50
2017-12-12T19:42:28.976Z,1.50
2017-12-12T19:44:57.934Z,1.50
2017-12-12T19:47:26.578Z,1.50
2017-12-12T19:49:54.954Z,1.40
2017-12-12T19:52:23.622Z,1.40
2017-12-12T19:54:51.998Z,1.50
2017-12-12T19:57:20.378Z,1.50
2017-12-12T19:59:48.869Z,1.50
2017-12-12T20:02:17.327Z,1.40
2017-12-12T20:04:45.818Z,1.40
2017-12-12T20:07:15.246Z,1.40
2017-12-12T20:09:43.305Z,1.40
2017-12-12T20:12:11.356Z,1.40
2017-12-12T20:14:40.277Z,1.40
2017-12-12T20:17:08.913Z,1.40
2017-12-12T20:19:37.383Z,1.40
2017-12-12T20:22:05.759Z,1.30
2017-12-12T20:24:33.939Z,1.30
2017-12-12T20:27:02.579Z,1.30
2017-12-12T20:29:30.966Z,1.30
2017-12-12T20:31:59.498Z,1.30
2017-12-12T20:34:27.870Z,1.20
2017-12-12T20:36:56.246Z,1.20
2017-12-12T20:39:24.662Z,1.20
2017-12-12T20:41:53.422Z,1.20
2017-12-12T20:44:21.990Z,1.20
2017-12-12T20:46:50.667Z,1.20
2017-12-12T20:49:19.794Z,1.30
2017-12-12T20:51:48.197Z,1.30
2017-12-12T20:54:16.573Z,1.30
2017-12-12T20:56:44.956Z,1.30
2017-12-12T20:59:13.605Z,1.30
2017-12-12T21:01:42.221Z,1.30
2017-12-12T21:04:10.441Z,1.30
2017-12-12T21:06:39.173Z,1.20
2017-12-12T21:09:07.568Z,1.20
2017-12-12T21:11:36.197Z,1.20
2017-12-12T21:14:04.190Z,1.20
2017-12-12T21:16:33.598Z,1.20
2017-12-12T21:19:02.997Z,1.20
2017-12-12T21:21:31.609Z,1.10
2017-12-12T21:24:00.017Z,1.20
2017-12-12T21:26:28.398Z,1.20
2017-12-12T21:28:57.550Z,1.10
2017-12-12T21:31:25.926Z,1.10
2017-12-12T21:33:54.583Z,1.20
2017-12-12T21:36:23.164Z,1.20
2017-12-12T21:38:51.838Z,1.30
2017-12-12T21:41:20.427Z,1.20
2017-12-12T21:43:48.880Z,1.30
2017-12-12T21:46:17.522Z,1.20
2017-12-12T21:48:46.278Z,1.10
2017-12-12T21:51:14.736Z,1.10
2017-12-12T21:53:43.387Z,1.10
2017-12-12T21:56:11.755Z,1.10
2017-12-12T21:58:40.140Z,1.10
2017-12-12T22:01:08.520Z,1.10
2017-12-12T22:03:36.897Z,1.10
2017-12-12T22:06:05.270Z,1.20
2017-12-12T22:08:33.658Z,1.10
2017-12-12T22:11:02.030Z,1.00
2017-12-12T22:13:30.446Z,1.00
2017-12-12T22:15:58.824Z,1.00
2017-12-12T22:18:27.204Z,1.00
2017-12-12T22:20:55.584Z,0.90
2017-12-12T22:23:23.985Z,0.90
2017-12-12T22:25:52.427Z,0.80
2017-12-12T22:28:21.642Z,0.90
2017-12-12T22:30:50.080Z,0.90
2017-12-12T22:33:19.982Z,0.80
2017-12-12T22:35:49.138Z,0.90
2017-12-12T22:38:17.535Z,0.80
2017-12-12T22:40:45.928Z,0.90
2017-12-12T22:43:14.342Z,0.90
2017-12-12T22:45:43.492Z,0.80
2017-12-12T22:48:11.884Z,0.70
2017-12-12T22:50:40.285Z,0.70
2017-12-12T22:53:09.460Z,0.70
2017-12-12T22:55:37.857Z,0.70
2017-12-12T22:58:07.907Z,0.70
2017-12-12T23:00:35.645Z,0.70
2017-12-12T23:03:04.468Z,0.60
2017-12-12T23:05:32.875Z,0.60
2017-12-12T23:08:01.242Z,0.50
2017-12-12T23:10:29.622Z,0.50
2017-12-12T23:12:58.009Z,0.40
2017-12-12T23:15:26.382Z,0.40
2017-12-12T23:17:54.771Z,0.30
2017-12-12T23:20:24.735Z,0.10
2017-12-12T23:22:53.105Z,0.10
2017-12-12T23:25:21.481Z,0.10
2017-12-12T23:27:49.543Z,0.00
2017-12-12T23:30:18.361Z,-0.10
2017-12-12T23:32:46.777Z,-0.20
2017-12-12T23:35:15.164Z,-0.10
2017-12-12T23:37:43.537Z,-0.10
2017-12-12T23:40:11.919Z,-0.10
2017-12-12T23:42:41.060Z,-0.10
2017-12-12T23:45:09.433Z,-0.10
2017-12-12T23:47:37.809Z,-0.10
2017-12-12T23:50:06.195Z,-0.10
2017-12-12T23:52:34.572Z,-0.10
2017-12-12T23:55:02.955Z,-0.10
2017-12-12T23:57:31.338Z,-0.10
2017-12-12T23:59:59.714Z,-0.10
